createdAt,value
2022-10-18T00:00:54.690Z,7.40
2022-10-18T00:01:54.671Z,6.60
2022-10-18T00:02:54.641Z,6.70
2022-10-18T00:03:54.632Z,7.70
2022-10-18T00:04:54.620Z,7.30
2022-10-18T00:05:54.631Z,7.50
2022-10-18T00:06:54.599Z,8.20
2022-10-18T00:07:54.583Z,7.60
2022-10-18T00:08:54.574Z,8.50
2022-10-18T00:09:54.561Z,8.30
2022-10-18T00:10:54.576Z,8.10
2022-10-18T00:11:54.540Z,8.20
2022-10-18T00:12:54.538Z,8.10
2022-10-18T00:13:54.537Z,8.20
2022-10-18T00:14:54.507Z,8.60
2022-10-18T00:15:54.497Z,8.30
2022-10-18T00:16:54.543Z,9.10
2022-10-18T00:17:54.472Z,8.20
2022-10-18T00:18:54.482Z,9.30
2022-10-18T00:19:54.449Z,9.00
2022-10-18T00:20:54.440Z,8.60
2022-10-18T00:21:54.438Z,8.70
2022-10-18T00:22:54.439Z,7.90
2022-10-18T00:23:54.405Z,8.10
2022-10-18T00:24:54.395Z,8.50
2022-10-18T00:25:54.382Z,8.80
2022-10-18T00:26:54.372Z,9.10
2022-10-18T00:27:54.390Z,9.60
2022-10-18T00:28:54.412Z,8.50
2022-10-18T00:29:54.360Z,8.40
2022-10-18T00:30:54.331Z,9.00
2022-10-18T00:31:54.316Z,9.50
2022-10-18T00:32:54.308Z,8.50
2022-10-18T00:33:54.307Z,8.40
2022-10-18T00:34:54.310Z,8.30
2022-10-18T00:35:54.273Z,9.10
2022-10-18T00:36:54.265Z,9.60
2022-10-18T00:37:54.270Z,9.50
2022-10-18T00:38:54.241Z,9.40
2022-10-18T00:39:54.230Z,9.60
2022-10-18T00:40:54.244Z,9.70
2022-10-18T00:41:54.210Z,10.00
2022-10-18T00:42:54.195Z,10.00
2022-10-18T00:43:54.186Z,9.80
2022-10-18T00:44:54.195Z,10.20
2022-10-18T00:45:54.199Z,10.60
2022-10-18T00:46:54.152Z,9.60
2022-10-18T00:47:54.137Z,10.90
2022-10-18T00:49:54.117Z,9.80
2022-10-18T00:50:54.425Z,10.00
2022-10-18T00:51:54.096Z,10.80
2022-10-18T00:52:54.086Z,8.50
2022-10-18T00:53:54.073Z,9.30
2022-10-18T00:54:54.083Z,10.80
2022-10-18T00:55:54.050Z,11.00
2022-10-18T00:56:54.041Z,10.80
2022-10-18T00:58:54.021Z,10.90
2022-10-18T00:59:54.028Z,12.20
2022-10-18T01:00:53.999Z,12.10
2022-10-18T01:01:54.032Z,12.00
2022-10-18T01:02:54.016Z,12.40
2022-10-18T01:03:54.011Z,12.40
2022-10-18T01:04:53.954Z,11.90
2022-10-18T01:05:53.937Z,12.60
2022-10-18T01:06:54.029Z,11.70
2022-10-18T01:07:53.937Z,12.30
2022-10-18T01:08:53.906Z,11.50
2022-10-18T01:09:53.917Z,12.20
2022-10-18T01:10:53.888Z,11.50
2022-10-18T01:11:53.907Z,11.60
2022-10-18T01:12:53.867Z,12.30
2022-10-18T01:13:53.849Z,12.60
2022-10-18T01:14:53.862Z,12.20
2022-10-18T01:15:53.902Z,12.40
2022-10-18T01:16:53.819Z,13.10
2022-10-18T01:17:53.822Z,12.00
2022-10-18T01:18:53.820Z,12.40
2022-10-18T01:19:53.786Z,13.20
2022-10-18T01:20:53.783Z,12.80
2022-10-18T01:21:53.773Z,13.20
2022-10-18T01:22:53.754Z,11.40
2022-10-18T01:23:53.767Z,10.90
2022-10-18T01:24:53.830Z,7.80
2022-10-18T01:25:53.717Z,8.50
2022-10-18T01:26:53.711Z,7.80
2022-10-18T01:27:53.694Z,7.70
2022-10-18T01:28:53.800Z,7.70
2022-10-18T01:29:53.680Z,8.10
2022-10-18T01:30:53.662Z,7.90
2022-10-18T01:31:56.387Z,7.90
2022-10-18T01:32:54.641Z,8.40
2022-10-18T01:33:53.724Z,8.20
2022-10-18T01:34:53.618Z,8.40
2022-10-18T01:35:53.613Z,8.20
2022-10-18T01:36:53.616Z,8.40
2022-10-18T01:37:53.587Z,8.50
2022-10-18T01:38:53.578Z,9.00
2022-10-18T01:39:53.563Z,9.20
2022-10-18T01:40:53.574Z,9.20
2022-10-18T01:41:53.539Z,8.10
2022-10-18T01:42:53.565Z,8.70
2022-10-18T01:43:53.520Z,8.00
2022-10-18T01:44:53.528Z,9.20
2022-10-18T01:45:53.519Z,9.20
2022-10-18T01:46:53.490Z,8.60
2022-10-18T01:47:53.474Z,8.10
2022-10-18T01:48:53.469Z,8.10
2022-10-18T01:49:53.470Z,8.20
2022-10-18T01:50:53.482Z,5.90
2022-10-18T01:51:53.486Z,7.20
2022-10-18T01:52:53.463Z,5.70
2022-10-18T01:53:53.408Z,6.50
2022-10-18T01:54:53.400Z,6.30
2022-10-18T01:55:53.412Z,5.50
2022-10-18T01:56:53.374Z,5.00
2022-10-18T01:57:53.370Z,4.70
2022-10-18T01:58:53.357Z,5.10
2022-10-18T01:59:53.344Z,5.10
2022-10-18T02:00:53.374Z,4.20
2022-10-18T02:01:53.343Z,4.30
2022-10-18T02:02:53.312Z,4.30
2022-10-18T02:03:53.298Z,5.00
2022-10-18T02:04:53.288Z,4.60
2022-10-18T02:05:53.293Z,4.10
2022-10-18T02:06:53.291Z,3.80
2022-10-18T02:08:05.367Z,4.00
2022-10-18T02:08:54.241Z,4.40
2022-10-18T02:09:53.229Z,4.60
2022-10-18T02:10:53.241Z,4.30
2022-10-18T02:11:53.256Z,4.60
2022-10-18T02:12:53.199Z,4.70
2022-10-18T02:13:53.186Z,4.70
2022-10-18T02:14:53.178Z,4.60
2022-10-18T02:15:53.186Z,4.40
2022-10-18T02:16:53.178Z,4.40
2022-10-18T02:17:53.142Z,4.40
2022-10-18T02:18:53.133Z,4.80
2022-10-18T02:19:53.118Z,5.20
2022-10-18T02:20:53.108Z,4.90
2022-10-18T02:21:53.142Z,4.40
2022-10-18T02:22:53.090Z,5.20
2022-10-18T02:23:53.105Z,5.00
2022-10-18T02:24:53.068Z,4.80
2022-10-18T02:25:53.057Z,4.60
2022-10-18T02:26:53.045Z,5.10
2022-10-18T02:27:53.050Z,5.40
2022-10-18T02:28:53.020Z,5.30
2022-10-18T02:29:53.031Z,5.50
2022-10-18T02:30:52.997Z,5.30
2022-10-18T02:31:52.985Z,5.70
2022-10-18T02:32:52.999Z,5.50
2022-10-18T02:33:52.966Z,5.40
2022-10-18T02:34:52.961Z,5.00
2022-10-18T02:35:52.940Z,5.60
2022-10-18T02:36:52.930Z,5.80
2022-10-18T02:37:52.978Z,5.00
2022-10-18T02:38:52.911Z,5.50
2022-10-18T02:39:52.909Z,5.40
2022-10-18T02:40:52.907Z,5.50
2022-10-18T02:41:52.876Z,5.60
2022-10-18T02:42:52.885Z,6.00
2022-10-18T02:43:52.852Z,5.40
2022-10-18T02:44:52.847Z,6.10
2022-10-18T02:45:52.829Z,6.00
2022-10-18T02:46:52.833Z,6.20
2022-10-18T02:47:52.828Z,5.60
2022-10-18T02:48:52.796Z,5.70
2022-10-18T02:49:52.784Z,5.70
2022-10-18T02:50:52.797Z,5.90
2022-10-18T02:51:52.786Z,6.10
2022-10-18T02:52:52.755Z,5.90
2022-10-18T02:53:52.760Z,5.50
2022-10-18T02:54:52.757Z,6.20
2022-10-18T02:55:52.719Z,5.00
2022-10-18T02:56:52.710Z,5.70
2022-10-18T02:57:52.700Z,6.10
2022-10-18T02:58:52.689Z,5.50
2022-10-18T02:59:52.672Z,5.60
2022-10-18T03:00:52.706Z,5.70
2022-10-18T03:01:52.734Z,5.70
2022-10-18T03:02:52.650Z,5.60
2022-10-18T03:03:52.650Z,5.40
2022-10-18T03:04:52.624Z,6.20
2022-10-18T03:05:52.633Z,5.40
2022-10-18T03:06:52.598Z,5.80
2022-10-18T03:07:52.584Z,5.80
2022-10-18T03:08:52.597Z,6.10
2022-10-18T03:09:52.603Z,6.80
2022-10-18T03:10:52.557Z,5.50
2022-10-18T03:11:52.549Z,6.20
2022-10-18T03:12:52.533Z,6.00
2022-10-18T03:13:52.542Z,6.60
2022-10-18T03:14:52.513Z,6.80
2022-10-18T03:15:52.498Z,6.00
2022-10-18T03:16:52.488Z,6.70
2022-10-18T03:17:52.493Z,6.50
2022-10-18T03:18:52.484Z,6.40
2022-10-18T03:19:52.476Z,5.80
2022-10-18T03:20:52.467Z,6.50
2022-10-18T03:21:52.432Z,7.00
2022-10-18T03:22:52.443Z,6.90
2022-10-18T03:23:52.407Z,6.70
2022-10-18T03:24:52.398Z,6.90
2022-10-18T03:25:52.405Z,6.70
2022-10-18T03:26:52.374Z,7.50
2022-10-18T03:27:52.383Z,7.50
2022-10-18T03:28:52.458Z,6.40
2022-10-18T03:29:52.365Z,7.50
2022-10-18T03:30:52.354Z,6.50
2022-10-18T03:31:52.319Z,6.90
2022-10-18T03:32:52.309Z,6.80
2022-10-18T03:33:52.324Z,7.00
2022-10-18T03:34:52.286Z,6.60
2022-10-18T03:35:52.276Z,7.20
2022-10-18T03:36:52.285Z,7.30
2022-10-18T03:37:52.252Z,7.70
2022-10-18T03:38:52.249Z,7.30
2022-10-18T03:39:52.231Z,7.00
2022-10-18T03:40:52.247Z,7.20
2022-10-18T03:41:52.226Z,7.90
2022-10-18T03:42:52.198Z,7.30
2022-10-18T03:43:52.205Z,8.30
2022-10-18T03:44:52.205Z,7.10
2022-10-18T03:45:52.202Z,6.30
2022-10-18T03:46:52.177Z,6.80
2022-10-18T03:47:52.144Z,6.30
2022-10-18T03:48:52.154Z,7.20
2022-10-18T03:49:54.683Z,7.00
2022-10-18T03:50:53.108Z,6.70
2022-10-18T03:51:52.096Z,6.50
2022-10-18T03:52:52.114Z,6.60
2022-10-18T03:53:52.075Z,6.50
2022-10-18T03:54:52.065Z,7.40
2022-10-18T03:55:52.080Z,7.40
2022-10-18T03:56:52.070Z,7.00
2022-10-18T03:57:52.084Z,7.10
2022-10-18T03:58:52.022Z,6.90
2022-10-18T03:59:52.007Z,7.80
2022-10-18T04:00:52.016Z,7.70
2022-10-18T04:01:52.056Z,7.90
2022-10-18T04:02:54.965Z,8.00
2022-10-18T04:03:51.967Z,7.50
2022-10-18T04:04:51.974Z,7.20
2022-10-18T04:05:51.941Z,7.40
2022-10-18T04:06:51.934Z,7.10
2022-10-18T04:07:51.923Z,7.00
2022-10-18T04:08:51.920Z,7.00
2022-10-18T04:09:51.897Z,7.50
2022-10-18T04:10:51.906Z,6.20
2022-10-18T04:11:51.907Z,7.00
2022-10-18T04:12:51.887Z,5.80
2022-10-18T04:13:51.870Z,6.50
2022-10-18T04:14:51.841Z,6.20
2022-10-18T04:15:51.832Z,6.10
2022-10-18T04:16:51.818Z,6.30
2022-10-18T04:17:51.825Z,6.60
2022-10-18T04:18:51.799Z,6.30
2022-10-18T04:19:51.784Z,6.10
2022-10-18T04:20:51.801Z,6.50
2022-10-18T04:21:51.765Z,6.70
2022-10-18T04:22:51.769Z,6.40
2022-10-18T04:23:51.760Z,6.10
2022-10-18T04:24:51.731Z,5.90
2022-10-18T04:25:51.741Z,5.90
2022-10-18T04:26:51.706Z,6.80
2022-10-18T04:27:51.722Z,7.10
2022-10-18T04:28:51.719Z,5.90
2022-10-18T04:29:51.673Z,6.00
2022-10-18T04:30:51.679Z,5.70
2022-10-18T04:31:51.670Z,6.20
2022-10-18T04:32:51.641Z,5.80
2022-10-18T04:33:51.651Z,5.30
2022-10-18T04:34:51.623Z,6.10
2022-10-18T04:35:51.609Z,5.60
2022-10-18T04:36:51.596Z,6.20
2022-10-18T04:37:51.589Z,6.10
2022-10-18T04:38:51.594Z,6.50
2022-10-18T04:39:53.637Z,6.80
2022-10-18T04:40:51.549Z,5.90
2022-10-18T04:41:51.541Z,6.20
2022-10-18T04:42:51.531Z,6.80
2022-10-18T04:43:51.543Z,6.60
2022-10-18T04:44:51.508Z,6.30
2022-10-18T04:45:51.500Z,6.20
2022-10-18T04:46:51.504Z,6.80
2022-10-18T04:47:51.475Z,7.20
2022-10-18T04:48:51.461Z,7.50
2022-10-18T04:49:51.472Z,7.10
2022-10-18T04:50:51.445Z,7.30
2022-10-18T04:51:51.431Z,8.00
2022-10-18T04:52:51.421Z,7.60
2022-10-18T04:53:51.407Z,7.00
2022-10-18T04:54:51.417Z,7.80
2022-10-18T04:55:51.386Z,8.40
2022-10-18T04:56:51.372Z,8.50
2022-10-18T04:57:51.367Z,7.70
2022-10-18T04:58:51.350Z,9.00
2022-10-18T04:59:51.362Z,8.50
2022-10-18T05:00:51.331Z,8.50
2022-10-18T05:01:51.418Z,7.90
2022-10-18T05:02:51.324Z,7.70
2022-10-18T05:03:51.298Z,7.30
2022-10-18T05:04:51.308Z,8.30
2022-10-18T05:06:01.704Z,8.30
2022-10-18T05:06:52.263Z,8.70
2022-10-18T05:07:51.253Z,8.80
2022-10-18T05:08:51.262Z,8.80
2022-10-18T05:09:51.236Z,9.40
2022-10-18T05:10:51.219Z,8.60
2022-10-18T05:11:51.212Z,9.00
2022-10-18T05:12:51.198Z,9.50
2022-10-18T05:13:51.206Z,8.90
2022-10-18T05:14:51.415Z,9.00
2022-10-18T05:15:51.167Z,8.40
2022-10-18T05:16:51.150Z,8.40
2022-10-18T05:17:51.152Z,8.20
2022-10-18T05:18:51.154Z,8.40
2022-10-18T05:19:51.143Z,8.50
2022-10-18T05:20:51.158Z,8.80
2022-10-18T05:21:51.098Z,8.70
2022-10-18T05:22:51.106Z,8.90
2022-10-18T05:23:51.073Z,8.80
2022-10-18T05:24:51.062Z,9.00
2022-10-18T05:25:51.051Z,8.50
2022-10-18T05:26:51.040Z,9.10
2022-10-18T05:27:51.050Z,8.90
2022-10-18T05:28:51.065Z,9.30
2022-10-18T05:29:51.010Z,9.20
2022-10-18T05:30:51.000Z,10.10
2022-10-18T05:31:50.987Z,9.10
2022-10-18T05:32:51.006Z,9.10
2022-10-18T05:33:50.963Z,9.20
2022-10-18T05:34:50.981Z,10.00
2022-10-18T05:35:50.940Z,11.30
2022-10-18T05:36:50.955Z,12.10
2022-10-18T05:37:50.919Z,10.70
2022-10-18T05:38:50.934Z,9.70
2022-10-18T05:39:50.902Z,10.30
2022-10-18T05:40:50.886Z,9.90
2022-10-18T05:41:50.897Z,10.40
2022-10-18T05:42:50.866Z,9.90
2022-10-18T05:43:50.851Z,10.30
2022-10-18T05:44:50.869Z,10.30
2022-10-18T05:45:50.852Z,9.40
2022-10-18T05:46:50.817Z,10.10
2022-10-18T05:47:50.810Z,9.00
2022-10-18T05:48:50.800Z,9.80
2022-10-18T05:49:50.805Z,8.40
2022-10-18T05:50:50.809Z,9.80
2022-10-18T05:51:50.787Z,9.30
2022-10-18T05:52:50.749Z,9.20
2022-10-18T05:53:50.739Z,9.10
2022-10-18T05:54:50.730Z,9.50
2022-10-18T05:55:50.741Z,8.90
2022-10-18T05:56:50.713Z,10.20
2022-10-18T05:57:50.699Z,10.40
2022-10-18T05:58:50.687Z,9.00
2022-10-18T05:59:50.673Z,9.60
2022-10-18T06:00:50.776Z,10.10
2022-10-18T06:01:50.672Z,10.10
2022-10-18T06:02:50.673Z,9.60
2022-10-18T06:03:50.630Z,10.50
2022-10-18T06:04:50.616Z,10.90
2022-10-18T06:05:50.607Z,11.30
2022-10-18T06:06:50.641Z,11.20
2022-10-18T06:07:50.586Z,10.10
2022-10-18T06:08:50.593Z,10.00
2022-10-18T06:09:50.563Z,9.60
2022-10-18T06:10:50.550Z,10.40
2022-10-18T06:11:50.561Z,10.80
2022-10-18T06:12:50.526Z,9.40
2022-10-18T06:13:50.546Z,10.40
2022-10-18T06:14:50.510Z,10.50
2022-10-18T06:15:50.516Z,10.20
2022-10-18T06:16:50.505Z,10.70
2022-10-18T06:17:50.473Z,10.30
2022-10-18T06:18:50.465Z,11.10
2022-10-18T06:19:50.451Z,10.10
2022-10-18T06:20:50.460Z,10.10
2022-10-18T06:21:50.452Z,10.10
2022-10-18T06:22:50.433Z,9.50
2022-10-18T06:23:50.407Z,9.50
2022-10-18T06:24:55.067Z,10.10
2022-10-18T06:25:51.384Z,9.70
2022-10-18T06:26:50.447Z,9.40
2022-10-18T06:27:50.361Z,9.80
2022-10-18T06:28:50.433Z,10.10
2022-10-18T06:29:50.341Z,9.50
2022-10-18T06:30:50.327Z,9.40
2022-10-18T06:31:50.317Z,9.40
2022-10-18T06:32:50.327Z,9.30
2022-10-18T06:33:50.314Z,8.90
2022-10-18T06:34:50.283Z,9.30
2022-10-18T06:35:50.273Z,9.60
2022-10-18T06:36:52.105Z,9.10
2022-10-18T06:37:50.260Z,9.30
2022-10-18T06:38:50.275Z,8.90
2022-10-18T06:39:50.230Z,9.20
2022-10-18T06:40:50.217Z,10.10
2022-10-18T06:41:50.207Z,9.60
2022-10-18T06:43:00.030Z,9.20
2022-10-18T06:43:51.205Z,9.00
2022-10-18T06:44:50.174Z,8.90
2022-10-18T06:45:50.163Z,8.50
2022-10-18T06:46:50.150Z,8.10
2022-10-18T06:47:50.140Z,8.80
2022-10-18T06:48:50.126Z,9.50
2022-10-18T06:49:50.137Z,9.70
2022-10-18T06:50:50.128Z,8.80
2022-10-18T06:51:50.097Z,9.60
2022-10-18T06:52:50.085Z,10.10
2022-10-18T06:53:59.600Z,9.80
2022-10-18T06:54:51.095Z,10.30
2022-10-18T06:55:50.050Z,10.40
2022-10-18T06:56:50.037Z,9.80
2022-10-18T06:57:50.027Z,11.10
2022-10-18T06:58:50.096Z,11.60
2022-10-18T06:59:50.006Z,11.00
2022-10-18T07:00:50.017Z,11.90
2022-10-18T07:01:50.015Z,11.50
2022-10-18T07:02:49.973Z,11.90
2022-10-18T07:03:49.965Z,11.10
2022-10-18T07:04:49.977Z,10.40
2022-10-18T07:05:49.961Z,10.80
2022-10-18T07:06:49.926Z,10.80
2022-10-18T07:07:52.957Z,11.60
2022-10-18T07:08:50.902Z,10.50
2022-10-18T07:09:49.894Z,11.00
2022-10-18T07:10:49.921Z,11.60
2022-10-18T07:11:49.874Z,10.90
2022-10-18T07:12:51.583Z,11.40
2022-10-18T07:13:49.849Z,11.90
2022-10-18T07:14:49.839Z,11.00
2022-10-18T07:15:49.851Z,12.10
2022-10-18T07:16:49.836Z,13.10
2022-10-18T07:17:49.806Z,11.80
2022-10-18T07:18:49.801Z,11.60
2022-10-18T07:19:49.784Z,12.80
2022-10-18T07:20:49.793Z,12.60
2022-10-18T07:21:49.764Z,12.40
2022-10-18T07:22:49.759Z,12.30
2022-10-18T07:23:49.740Z,11.80
2022-10-18T07:24:49.726Z,11.80
2022-10-18T07:25:49.737Z,12.10
2022-10-18T07:26:49.740Z,12.50
2022-10-18T07:27:49.695Z,12.20
2022-10-18T07:28:49.789Z,11.80
2022-10-18T07:29:49.684Z,11.90
2022-10-18T07:30:49.664Z,11.60
2022-10-18T07:31:49.701Z,11.60
2022-10-18T07:32:49.639Z,12.00
2022-10-18T07:33:49.630Z,12.80
2022-10-18T07:34:49.619Z,12.20
2022-10-18T07:35:49.632Z,11.80
2022-10-18T07:36:49.593Z,11.70
2022-10-18T07:37:49.585Z,12.20
2022-10-18T07:38:49.571Z,11.60
2022-10-18T07:39:49.562Z,11.40
2022-10-18T07:40:49.572Z,11.80
2022-10-18T07:41:49.542Z,11.30
2022-10-18T07:42:49.564Z,11.80
2022-10-18T07:43:49.519Z,11.20
2022-10-18T07:44:49.508Z,11.40
2022-10-18T07:45:49.498Z,11.50
2022-10-18T07:46:49.503Z,10.80
2022-10-18T07:47:49.472Z,11.30
2022-10-18T07:48:49.463Z,10.30
2022-10-18T07:49:49.454Z,10.90
2022-10-18T07:50:49.444Z,11.70
2022-10-18T07:51:49.452Z,11.10
2022-10-18T07:52:49.419Z,11.70
2022-10-18T07:53:49.425Z,10.60
2022-10-18T07:55:49.387Z,10.40
2022-10-18T07:56:49.396Z,10.40
2022-10-18T07:57:49.362Z,9.60
2022-10-18T07:58:49.387Z,10.00
2022-10-18T07:59:49.343Z,9.80
2022-10-18T08:00:49.342Z,8.90
2022-10-18T08:01:49.373Z,8.90
2022-10-18T08:02:49.309Z,8.90
2022-10-18T08:03:49.318Z,8.70
2022-10-18T08:04:49.281Z,8.60
2022-10-18T08:05:49.273Z,8.30
2022-10-18T08:06:49.269Z,9.10
2022-10-18T08:07:49.250Z,9.30
2022-10-18T08:08:49.258Z,9.90
2022-10-18T08:09:49.230Z,10.20
2022-10-18T08:10:49.238Z,9.60
2022-10-18T08:11:49.212Z,9.60
2022-10-18T08:12:49.193Z,9.30
2022-10-18T08:13:49.187Z,9.40
2022-10-18T08:14:49.191Z,9.20
2022-10-18T08:15:49.268Z,8.90
2022-10-18T08:16:49.174Z,10.20
2022-10-18T08:17:49.142Z,9.60
2022-10-18T08:18:49.135Z,10.00
2022-10-18T08:19:58.540Z,9.70
2022-10-18T08:20:50.105Z,9.40
2022-10-18T08:21:49.119Z,9.50
2022-10-18T08:22:49.085Z,9.80
2022-10-18T08:23:49.072Z,9.60
2022-10-18T08:24:49.065Z,9.60
2022-10-18T08:25:49.072Z,9.30
2022-10-18T08:26:49.044Z,9.60
2022-10-18T08:27:49.033Z,8.90
2022-10-18T08:28:58.171Z,8.30
2022-10-18T08:29:50.181Z,8.10
2022-10-18T08:30:49.019Z,8.50
2022-10-18T08:31:48.983Z,8.80
2022-10-18T08:32:48.975Z,8.30
2022-10-18T08:33:48.961Z,8.40
2022-10-18T08:34:48.975Z,8.20
2022-10-18T08:35:48.948Z,7.30
2022-10-18T08:36:48.954Z,8.50
2022-10-18T08:37:48.919Z,7.90
2022-10-18T08:38:48.928Z,7.60
2022-10-18T08:39:48.939Z,7.70
2022-10-18T08:40:48.887Z,7.50
2022-10-18T08:41:49.116Z,7.60
2022-10-18T08:42:48.862Z,7.20
2022-10-18T08:43:48.849Z,7.80
2022-10-18T08:44:48.852Z,7.30
2022-10-18T08:45:48.831Z,7.80
2022-10-18T08:46:48.861Z,8.20
2022-10-18T08:47:48.806Z,8.80
2022-10-18T08:48:48.805Z,8.50
2022-10-18T08:49:48.783Z,8.80
2022-10-18T08:50:48.774Z,8.70
2022-10-18T08:51:48.760Z,9.30
2022-10-18T08:52:48.770Z,9.20
2022-10-18T08:53:48.741Z,9.50
2022-10-18T08:54:48.734Z,9.20
2022-10-18T08:55:48.716Z,9.00
2022-10-18T08:56:48.733Z,8.80
2022-10-18T08:57:48.693Z,9.00
2022-10-18T08:58:48.684Z,9.70
2022-10-18T08:59:48.672Z,9.20
2022-10-18T09:00:48.661Z,8.20
2022-10-18T09:02:48.835Z,8.40
2022-10-18T09:03:48.683Z,9.60
2022-10-18T09:04:48.618Z,9.40
2022-10-18T09:05:48.605Z,9.90
2022-10-18T09:06:48.596Z,10.50
2022-10-18T09:07:48.616Z,9.60
2022-10-18T09:08:48.573Z,10.00
2022-10-18T09:09:48.562Z,10.20
2022-10-18T09:10:48.692Z,10.00
2022-10-18T09:11:48.538Z,10.20
2022-10-18T09:12:48.528Z,9.90
2022-10-18T09:13:48.518Z,9.20
2022-10-18T09:14:48.528Z,9.20
2022-10-18T09:15:48.499Z,9.70
2022-10-18T09:16:48.486Z,8.70
2022-10-18T09:17:48.498Z,8.60
2022-10-18T09:18:48.482Z,8.80
2022-10-18T09:19:48.556Z,8.90
2022-10-18T09:20:48.442Z,9.50
2022-10-18T09:21:48.449Z,10.10
2022-10-18T09:22:48.444Z,9.80
2022-10-18T09:23:48.429Z,8.90
2022-10-18T09:24:48.431Z,9.30
2022-10-18T09:25:48.388Z,9.80
2022-10-18T09:26:48.396Z,9.40
2022-10-18T09:27:48.361Z,10.00
2022-10-18T09:28:48.434Z,9.80
2022-10-18T09:29:48.362Z,9.50
2022-10-18T09:30:48.332Z,10.70
2022-10-18T09:31:48.315Z,10.80
2022-10-18T09:32:48.307Z,10.50
2022-10-18T09:33:48.316Z,10.30
2022-10-18T09:34:48.299Z,9.90
2022-10-18T09:35:48.274Z,10.70
2022-10-18T09:36:48.288Z,10.50
2022-10-18T09:37:48.274Z,10.20
2022-10-18T09:38:48.239Z,9.90
2022-10-18T09:39:48.228Z,9.60
2022-10-18T09:40:48.411Z,10.40
2022-10-18T09:41:48.206Z,10.80
2022-10-18T09:42:48.192Z,9.80
2022-10-18T09:43:48.180Z,10.00
2022-10-18T09:44:48.171Z,10.30
2022-10-18T09:45:48.159Z,9.60
2022-10-18T09:46:48.170Z,10.70
2022-10-18T09:47:48.162Z,11.20
2022-10-18T09:48:48.127Z,10.10
2022-10-18T09:49:48.117Z,10.40
2022-10-18T09:50:48.122Z,10.30
2022-10-18T09:51:48.092Z,10.40
2022-10-18T09:52:48.083Z,10.30
2022-10-18T09:53:48.093Z,10.80
2022-10-18T09:54:48.065Z,10.50
2022-10-18T09:55:48.075Z,9.80
2022-10-18T09:56:48.132Z,10.20
2022-10-18T09:57:48.029Z,10.30
2022-10-18T09:58:48.016Z,9.40
2022-10-18T09:59:48.008Z,9.80
2022-10-18T10:00:47.994Z,9.80
2022-10-18T10:01:48.006Z,9.80
2022-10-18T10:02:48.056Z,10.30
2022-10-18T10:03:47.957Z,10.20
2022-10-18T10:04:48.594Z,10.30
2022-10-18T10:05:47.935Z,9.60
2022-10-18T10:06:47.945Z,10.00
2022-10-18T10:07:47.922Z,9.80
2022-10-18T10:08:47.904Z,9.00
2022-10-18T10:09:47.893Z,8.80
2022-10-18T10:10:47.984Z,8.30
2022-10-18T10:11:47.869Z,8.60
2022-10-18T10:12:47.865Z,9.10
2022-10-18T10:13:47.848Z,9.20
2022-10-18T10:14:47.861Z,7.40
2022-10-18T10:15:47.827Z,8.40
2022-10-18T10:16:47.892Z,8.30
2022-10-18T10:17:47.803Z,8.00
2022-10-18T10:18:47.795Z,8.50
2022-10-18T10:19:47.808Z,8.10
2022-10-18T10:20:47.772Z,8.90
2022-10-18T10:21:47.764Z,9.10
2022-10-18T10:22:47.767Z,8.70
2022-10-18T10:23:47.736Z,8.30
2022-10-18T10:24:47.726Z,8.10
2022-10-18T10:25:47.733Z,8.50
2022-10-18T10:26:47.707Z,8.30
2022-10-18T10:27:47.690Z,8.90
2022-10-18T10:28:47.730Z,8.90
2022-10-18T10:29:47.785Z,8.10
2022-10-18T10:30:47.663Z,8.00
2022-10-18T10:31:47.648Z,7.70
2022-10-18T10:32:47.653Z,8.30
2022-10-18T10:33:47.627Z,8.10
2022-10-18T10:34:47.637Z,8.70
2022-10-18T10:35:54.766Z,8.70
2022-10-18T10:36:48.593Z,8.80
2022-10-18T10:37:47.579Z,8.40
2022-10-18T10:38:47.678Z,8.10
2022-10-18T10:40:00.652Z,7.90
2022-10-18T10:40:48.546Z,8.20
2022-10-18T10:41:47.555Z,7.70
2022-10-18T10:42:47.527Z,7.50
2022-10-18T10:43:47.511Z,6.70
2022-10-18T10:44:47.505Z,6.20
2022-10-18T10:45:47.650Z,6.30
2022-10-18T10:46:47.484Z,6.20
2022-10-18T10:47:47.468Z,7.60
2022-10-18T10:48:47.460Z,6.70
2022-10-18T10:49:47.458Z,7.30
2022-10-18T10:50:48.468Z,7.30
2022-10-18T10:51:53.714Z,7.20
2022-10-18T10:52:48.674Z,7.20
2022-10-18T10:53:47.406Z,6.40
2022-10-18T10:54:51.354Z,6.70
2022-10-18T10:55:48.378Z,6.00
2022-10-18T10:56:47.405Z,6.00
2022-10-18T10:57:47.360Z,5.80
2022-10-18T10:58:47.348Z,5.30
2022-10-18T10:59:47.338Z,5.10
2022-10-18T11:00:47.326Z,5.00
2022-10-18T11:01:47.313Z,5.30
2022-10-18T11:02:59.228Z,4.50
2022-10-18T11:03:48.326Z,5.10
2022-10-18T11:04:47.282Z,4.50
2022-10-18T11:05:47.273Z,4.50
2022-10-18T11:06:47.260Z,5.00
2022-10-18T11:07:47.272Z,4.50
2022-10-18T11:08:47.278Z,4.10
2022-10-18T11:09:47.229Z,4.20
2022-10-18T11:10:47.230Z,3.90
2022-10-18T11:11:47.303Z,3.90
2022-10-18T11:12:47.191Z,3.90
2022-10-18T11:13:50.007Z,2.60
2022-10-18T11:14:48.168Z,2.90
2022-10-18T11:15:47.156Z,3.00
2022-10-18T11:16:47.148Z,2.70
2022-10-18T11:17:47.175Z,2.80
2022-10-18T11:18:47.125Z,3.10
2022-10-18T11:19:47.112Z,3.30
2022-10-18T11:20:47.105Z,3.20
2022-10-18T11:21:47.111Z,3.20
2022-10-18T11:22:47.084Z,3.40
2022-10-18T11:23:47.070Z,2.80
2022-10-18T11:24:47.060Z,2.60
2022-10-18T11:25:47.047Z,2.70
2022-10-18T11:26:49.995Z,3.00
2022-10-18T11:27:48.024Z,2.80
2022-10-18T11:28:47.082Z,3.10
2022-10-18T11:29:47.004Z,3.30
2022-10-18T11:30:47.016Z,3.20
2022-10-18T11:31:46.978Z,3.70
2022-10-18T11:32:46.969Z,2.90
2022-10-18T11:34:10.657Z,3.00
2022-10-18T11:34:47.945Z,3.30
2022-10-18T11:35:46.942Z,3.00
2022-10-18T11:36:56.132Z,3.60
2022-10-18T11:37:47.911Z,3.60
2022-10-18T11:38:46.904Z,3.30
2022-10-18T11:39:46.919Z,3.40
2022-10-18T11:40:46.882Z,3.80
2022-10-18T11:41:46.869Z,3.80
2022-10-18T11:42:46.906Z,3.90
2022-10-18T11:44:01.681Z,3.50
2022-10-18T11:44:47.878Z,3.10
2022-10-18T11:45:46.846Z,3.40
2022-10-18T11:46:46.820Z,3.70
2022-10-18T11:47:46.804Z,3.60
2022-10-18T11:48:46.793Z,4.10
2022-10-18T11:49:46.780Z,3.90
2022-10-18T11:50:47.111Z,3.70
2022-10-18T11:52:06.692Z,3.80
2022-10-18T11:52:47.746Z,3.70
2022-10-18T11:53:51.649Z,3.80
2022-10-18T11:54:47.729Z,3.90
2022-10-18T11:55:46.751Z,3.50
2022-10-18T11:56:46.705Z,4.30
2022-10-18T11:57:46.692Z,3.80
2022-10-18T11:58:46.705Z,4.50
2022-10-18T11:59:46.681Z,5.30
2022-10-18T12:00:47.485Z,5.00
2022-10-18T12:01:46.693Z,4.50
2022-10-18T12:02:46.717Z,4.60
2022-10-18T12:03:46.627Z,4.60
2022-10-18T12:04:59.852Z,4.80
2022-10-18T12:05:47.602Z,4.60
2022-10-18T12:06:46.593Z,4.60
2022-10-18T12:07:46.602Z,4.60
2022-10-18T12:08:46.571Z,4.50
2022-10-18T12:09:46.563Z,4.70
2022-10-18T12:11:04.015Z,4.10
2022-10-18T12:11:49.391Z,4.00
2022-10-18T12:12:46.529Z,4.40
2022-10-18T12:13:46.538Z,4.50
2022-10-18T12:14:46.544Z,4.50
2022-10-18T12:15:46.495Z,4.70
2022-10-18T12:16:51.394Z,4.70
2022-10-18T12:17:50.123Z,3.70
2022-10-18T12:18:46.513Z,4.40
2022-10-18T12:19:46.450Z,4.50
2022-10-18T12:20:46.444Z,4.50
2022-10-18T12:21:46.424Z,4.30
2022-10-18T12:22:46.436Z,4.20
2022-10-18T12:23:46.402Z,4.60
2022-10-18T12:24:46.395Z,4.60
2022-10-18T12:25:46.401Z,4.50
2022-10-18T12:26:46.402Z,4.40
2022-10-18T12:27:46.358Z,4.30
2022-10-18T12:28:46.439Z,4.30
2022-10-18T12:29:49.492Z,4.40
2022-10-18T12:30:46.344Z,4.20
2022-10-18T12:31:46.315Z,4.20
2022-10-18T12:33:02.091Z,4.30
2022-10-18T12:33:47.291Z,3.90
2022-10-18T12:34:46.304Z,4.40
2022-10-18T12:35:46.274Z,4.40
2022-10-18T12:36:46.262Z,4.30
2022-10-18T12:37:46.253Z,4.30
2022-10-18T12:38:46.264Z,4.20
2022-10-18T12:40:08.612Z,4.20
2022-10-18T12:40:47.235Z,4.20
2022-10-18T12:41:46.211Z,4.20
2022-10-18T12:42:46.222Z,4.30
2022-10-18T12:43:46.185Z,4.40
2022-10-18T12:44:46.202Z,4.10
2022-10-18T12:45:46.183Z,4.40
2022-10-18T12:46:46.175Z,4.40
2022-10-18T12:47:46.172Z,4.30
2022-10-18T12:48:46.147Z,4.10
2022-10-18T12:49:46.138Z,4.00
2022-10-18T12:50:46.104Z,4.10
2022-10-18T12:51:46.100Z,4.10
2022-10-18T12:52:46.085Z,4.60
2022-10-18T12:53:46.227Z,4.50
2022-10-18T12:54:46.063Z,4.80
2022-10-18T12:55:46.055Z,4.30
2022-10-18T12:56:46.060Z,4.30
2022-10-18T12:57:46.031Z,4.80
2022-10-18T12:58:46.148Z,4.40
2022-10-18T12:59:46.165Z,4.30
2022-10-18T13:00:45.994Z,3.90
2022-10-18T13:01:46.089Z,4.80
2022-10-18T13:02:45.989Z,4.50
2022-10-18T13:03:45.965Z,4.20
2022-10-18T13:04:46.006Z,4.60
2022-10-18T13:05:53.050Z,4.60
2022-10-18T13:06:46.926Z,4.50
2022-10-18T13:07:45.940Z,4.30
2022-10-18T13:08:45.908Z,4.50
2022-10-18T13:09:45.896Z,4.00
2022-10-18T13:10:45.884Z,4.40
2022-10-18T13:11:45.896Z,4.60
2022-10-18T13:12:45.863Z,4.30
2022-10-18T13:13:45.855Z,4.50
2022-10-18T13:14:59.109Z,4.50
2022-10-18T13:15:46.828Z,4.70
2022-10-18T13:16:45.841Z,4.70